Nathans Creek, North Carolina
Current Conditions -  °F | °C
As of 10:55 PM on Tuesday 27 Jan 2015 (Local Time) from KGEV Reporting Station
Clear Clear  
Wind Chill:   Ceiling: Unl
Heat Index: 22°   Visibility: 10mi
Dew Point:   Wind: 21mph
Humidity: 55%   Direction: 320°NW
Pressure: 29.89"   Gusts: 33mph
Location:  36.484°N, 81.3801°W
Report Text: KGEV 280355Z AUTO 32018G29KT 10SM CLR M06/M13 A2989 RMK AO2 T10571135
Loading
Personal Weather Stations






























Interactive Weather Map New forecast layout! Learn more

10-Day Weather Forecast

Advertisements
Track Severe Weather on mobile